sensor_id;sensor_type;location;lat;lon;timestamp;pressure;altitude;pressure_sealevel;temperature;humidity
33191;BME280;19554;42.652;23.364;2023-03-15T00:01:18;93662.47;;;8.42;34.59
33191;BME280;19554;42.652;23.364;2023-03-15T00:03:45;93644.13;;;8.26;34.32
33191;BME280;19554;42.652;23.364;2023-03-15T00:06:11;93557.94;;;7.64;34.08
33191;BME280;19554;42.652;23.364;2023-03-15T00:08:37;93633.41;;;8.18;33.98
33191;BME280;19554;42.652;23.364;2023-03-15T00:11:02;93638.41;;;8.19;34.08
33191;BME280;19554;42.652;23.364;2023-03-15T00:13:28;93623.25;;;8.06;34.29
33191;BME280;19554;42.652;23.364;2023-03-15T00:15:59;93638.22;;;8.02;34.50
33191;BME280;19554;42.652;23.364;2023-03-15T00:18:25;93642.94;;;8.05;34.21
33191;BME280;19554;42.652;23.364;2023-03-15T00:20:51;93562.53;;;7.58;34.15
33191;BME280;19554;42.652;23.364;2023-03-15T00:23:16;93634.88;;;8.10;34.25
33191;BME280;19554;42.652;23.364;2023-03-15T00:25:46;93616.19;;;8.01;34.01
33191;BME280;19554;42.652;23.364;2023-03-15T00:28:12;93644.72;;;8.23;34.12
33191;BME280;19554;42.652;23.364;2023-03-15T00:30:38;93636.66;;;8.28;34.51
33191;BME280;19554;42.652;23.364;2023-03-15T00:33:04;93640.03;;;8.48;34.75
33191;BME280;19554;42.652;23.364;2023-03-15T00:35:33;93646.19;;;8.57;35.00
33191;BME280;19554;42.652;23.364;2023-03-15T00:38:02;93644.13;;;8.54;35.58
33191;BME280;19554;42.652;23.364;2023-03-15T00:40:28;93624.81;;;8.62;37.04
33191;BME280;19554;42.652;23.364;2023-03-15T00:42:54;93634.28;;;8.68;38.09
33191;BME280;19554;42.652;23.364;2023-03-15T00:45:21;93581.97;;;8.50;38.61
33191;BME280;19554;42.652;23.364;2023-03-15T00:47:51;93638.97;;;8.71;38.96
33191;BME280;19554;42.652;23.364;2023-03-15T00:50:17;93626.16;;;8.73;39.29
33191;BME280;19554;42.652;23.364;2023-03-15T00:52:43;93627.13;;;8.77;39.36
33191;BME280;19554;42.652;23.364;2023-03-15T00:55:13;93607.34;;;8.70;39.34
33191;BME280;19554;42.652;23.364;2023-03-15T00:57:40;93616.88;;;8.85;39.34
33191;BME280;19554;42.652;23.364;2023-03-15T01:00:08;93598.47;;;8.74;39.17
33191;BME280;19554;42.652;23.364;2023-03-15T01:02:34;93613.31;;;8.89;39.29
33191;BME280;19554;42.652;23.364;2023-03-15T01:05:02;93611.31;;;8.95;39.02
33191;BME280;19554;42.652;23.364;2023-03-15T01:07:28;93604.91;;;8.96;39.10
33191;BME280;19554;42.652;23.364;2023-03-15T01:09:53;93604.59;;;8.97;38.91
33191;BME280;19554;42.652;23.364;2023-03-15T01:12:19;93609.31;;;9.00;38.92
33191;BME280;19554;42.652;23.364;2023-03-15T01:14:44;93582.03;;;8.95;39.02
33191;BME280;19554;42.652;23.364;2023-03-15T01:17:10;93596.94;;;8.96;38.97
33191;BME280;19554;42.652;23.364;2023-03-15T01:19:35;93549.00;;;8.73;39.10
33191;BME280;19554;42.652;23.364;2023-03-15T01:22:00;93590.88;;;9.04;39.29
33191;BME280;19554;42.652;23.364;2023-03-15T01:24:26;93580.91;;;9.10;39.26
33191;BME280;19554;42.652;23.364;2023-03-15T01:26:51;93580.09;;;9.09;39.51
33191;BME280;19554;42.652;23.364;2023-03-15T01:29:17;93586.66;;;9.03;39.66
33191;BME280;19554;42.652;23.364;2023-03-15T01:31:42;93585.28;;;8.92;39.72
33191;BME280;19554;42.652;23.364;2023-03-15T01:34:08;93564.25;;;8.82;39.77
33191;BME280;19554;42.652;23.364;2023-03-15T01:36:33;93572.59;;;8.89;39.94
33191;BME280;19554;42.652;23.364;2023-03-15T01:38:59;93572.50;;;8.94;40.00
33191;BME280;19554;42.652;23.364;2023-03-15T01:41:24;93566.81;;;8.87;39.88
33191;BME280;19554;42.652;23.364;2023-03-15T01:43:51;93538.00;;;8.66;40.09
33191;BME280;19554;42.652;23.364;2023-03-15T01:48:44;93565.84;;;8.83;40.39
33191;BME280;19554;42.652;23.364;2023-03-15T01:51:25;93561.41;;;8.78;40.46
33191;BME280;19554;42.652;23.364;2023-03-15T01:54:06;93559.53;;;8.78;40.62
33191;BME280;19554;42.652;23.364;2023-03-15T01:56:34;93551.53;;;8.78;41.18
33191;BME280;19554;42.652;23.364;2023-03-15T01:59:04;93551.06;;;8.76;41.11
33191;BME280;19554;42.652;23.364;2023-03-15T02:01:32;93557.50;;;8.75;41.25
33191;BME280;19554;42.652;23.364;2023-03-15T02:04:06;93537.47;;;8.56;41.20
33191;BME280;19554;42.652;23.364;2023-03-15T02:06:34;93520.44;;;8.43;41.32
33191;BME280;19554;42.652;23.364;2023-03-15T02:09:03;93546.59;;;8.63;41.70
33191;BME280;19554;42.652;23.364;2023-03-15T02:11:30;93533.28;;;8.63;41.67
33191;BME280;19554;42.652;23.364;2023-03-15T02:13:56;93501.34;;;8.41;41.62
33191;BME280;19554;42.652;23.364;2023-03-15T02:16:23;93525.72;;;8.57;41.56
33191;BME280;19554;42.652;23.364;2023-03-15T02:18:49;93489.16;;;8.40;41.49
33191;BME280;19554;42.652;23.364;2023-03-15T02:27:01;93504.69;;;8.46;42.22
33191;BME280;19554;42.652;23.364;2023-03-15T02:29:28;93520.53;;;8.51;42.41
33191;BME280;19554;42.652;23.364;2023-03-15T02:31:55;93507.84;;;8.48;42.37
33191;BME280;19554;42.652;23.364;2023-03-15T02:34:21;93511.16;;;8.54;42.40
33191;BME280;19554;42.652;23.364;2023-03-15T02:36:50;93509.22;;;8.46;42.71
33191;BME280;19554;42.652;23.364;2023-03-15T02:39:19;93510.78;;;8.47;42.48
33191;BME280;19554;42.652;23.364;2023-03-15T02:41:57;93453.78;;;8.03;42.70
33191;BME280;19554;42.652;23.364;2023-03-15T02:44:30;93517.41;;;8.36;43.01
33191;BME280;19554;42.652;23.364;2023-03-15T02:47:00;93517.50;;;8.30;42.89
33191;BME280;19554;42.652;23.364;2023-03-15T02:49:30;93511.63;;;8.20;43.18
33191;BME280;19554;42.652;23.364;2023-03-15T02:51:57;93499.63;;;8.08;43.38
33191;BME280;19554;42.652;23.364;2023-03-15T02:54:22;93501.97;;;8.10;43.65
33191;BME280;19554;42.652;23.364;2023-03-15T02:56:48;93505.25;;;8.07;43.81
33191;BME280;19554;42.652;23.364;2023-03-15T02:59:13;93402.75;;;7.01;43.41
33191;BME280;19554;42.652;23.364;2023-03-15T03:01:39;93452.69;;;7.68;43.08
33191;BME280;19554;42.652;23.364;2023-03-15T03:04:04;93499.25;;;8.01;43.54
33191;BME280;19554;42.652;23.364;2023-03-15T03:06:30;93498.84;;;8.08;43.82
33191;BME280;19554;42.652;23.364;2023-03-15T03:08:55;93498.25;;;8.11;43.88
33191;BME280;19554;42.652;23.364;2023-03-15T03:11:21;93486.66;;;8.07;43.35
33191;BME280;19554;42.652;23.364;2023-03-15T03:13:46;93486.94;;;8.05;43.81
33191;BME280;19554;42.652;23.364;2023-03-15T03:16:11;93484.88;;;8.02;43.98
33191;BME280;19554;42.652;23.364;2023-03-15T03:18:37;93473.47;;;8.02;43.98
33191;BME280;19554;42.652;23.364;2023-03-15T03:21:05;93483.00;;;8.03;44.38
33191;BME280;19554;42.652;23.364;2023-03-15T03:23:32;93435.97;;;7.67;44.60
33191;BME280;19554;42.652;23.364;2023-03-15T03:25:59;93482.03;;;7.99;44.63
33191;BME280;19554;42.652;23.364;2023-03-15T03:28:27;93450.13;;;7.76;44.75
33191;BME280;19554;42.652;23.364;2023-03-15T03:30:53;93475.25;;;7.93;44.81
33191;BME280;19554;42.652;23.364;2023-03-15T03:33:20;93468.78;;;7.85;44.88
33191;BME280;19554;42.652;23.364;2023-03-15T03:35:45;93461.72;;;7.80;45.21
33191;BME280;19554;42.652;23.364;2023-03-15T03:38:11;93469.00;;;7.61;45.82
33191;BME280;19554;42.652;23.364;2023-03-15T03:40:38;93461.75;;;7.53;45.91
33191;BME280;19554;42.652;23.364;2023-03-15T03:43:03;93461.75;;;7.53;45.84
33191;BME280;19554;42.652;23.364;2023-03-15T03:45:29;93449.06;;;7.50;45.86
33191;BME280;19554;42.652;23.364;2023-03-15T03:47:54;93456.81;;;7.60;45.81
33191;BME280;19554;42.652;23.364;2023-03-15T03:50:20;93466.53;;;7.65;45.88
33191;BME280;19554;42.652;23.364;2023-03-15T03:52:45;93455.63;;;7.66;46.16
33191;BME280;19554;42.652;23.364;2023-03-15T03:55:11;93460.94;;;7.66;46.43
33191;BME280;19554;42.652;23.364;2023-03-15T03:57:40;93425.16;;;7.50;46.37
33191;BME280;19554;42.652;23.364;2023-03-15T04:00:07;93446.66;;;7.62;46.50
33191;BME280;19554;42.652;23.364;2023-03-15T04:02:34;93459.56;;;7.69;46.51
33191;BME280;19554;42.652;23.364;2023-03-15T04:04:59;93438.72;;;7.62;46.48
33191;BME280;19554;42.652;23.364;2023-03-15T04:07:25;93450.31;;;7.66;46.64
33191;BME280;19554;42.652;23.364;2023-03-15T04:09:50;93432.41;;;7.58;46.76
33191;BME280;19554;42.652;23.364;2023-03-15T04:12:15;93442.66;;;7.51;46.94
33191;BME280;19554;42.652;23.364;2023-03-15T04:14:41;93434.22;;;7.49;46.73
33191;BME280;19554;42.652;23.364;2023-03-15T04:17:07;93426.34;;;7.44;46.78
33191;BME280;19554;42.652;23.364;2023-03-15T04:19:33;93428.91;;;7.49;46.34
33191;BME280;19554;42.652;23.364;2023-03-15T04:21:59;93422.97;;;7.52;46.21
33191;BME280;19554;42.652;23.364;2023-03-15T04:24:33;93407.06;;;7.38;46.47
33191;BME280;19554;42.652;23.364;2023-03-15T04:26:59;93421.34;;;7.28;46.61
33191;BME280;19554;42.652;23.364;2023-03-15T04:29:24;93338.50;;;6.76;46.90
33191;BME280;19554;42.652;23.364;2023-03-15T04:31:50;93429.31;;;7.42;47.03
33191;BME280;19554;42.652;23.364;2023-03-15T04:34:15;93431.06;;;7.47;47.62
33191;BME280;19554;42.652;23.364;2023-03-15T04:36:41;93424.66;;;7.48;47.80
33191;BME280;19554;42.652;23.364;2023-03-15T04:39:07;93415.13;;;7.47;47.94
33191;BME280;19554;42.652;23.364;2023-03-15T04:41:33;93400.00;;;7.33;47.79
33191;BME280;19554;42.652;23.364;2023-03-15T04:44:04;93419.06;;;7.49;47.64
33191;BME280;19554;42.652;23.364;2023-03-15T04:46:32;93438.91;;;7.52;47.12
33191;BME280;19554;42.652;23.364;2023-03-15T04:48:58;93386.94;;;7.23;46.84
33191;BME280;19554;42.652;23.364;2023-03-15T04:51:23;93426.13;;;7.54;47.27
33191;BME280;19554;42.652;23.364;2023-03-15T04:53:49;93432.53;;;7.53;46.91
33191;BME280;19554;42.652;23.364;2023-03-15T04:56:15;93434.22;;;7.49;46.97
33191;BME280;19554;42.652;23.364;2023-03-15T04:58:40;93434.22;;;7.49;47.30
33191;BME280;19554;42.652;23.364;2023-03-15T05:01:05;93337.91;;;6.93;47.37
33191;BME280;19554;42.652;23.364;2023-03-15T05:03:31;93356.00;;;7.05;46.85
33191;BME280;19554;42.652;23.364;2023-03-15T05:05:56;93438.22;;;7.60;46.94
33191;BME280;19554;42.652;23.364;2023-03-15T05:08:22;93445.59;;;7.63;46.06
33191;BME280;19554;42.652;23.364;2023-03-15T05:10:47;93441.28;;;7.67;46.12
33191;BME280;19554;42.652;23.364;2023-03-15T05:13:12;93428.69;;;7.73;46.75
33191;BME280;19554;42.652;23.364;2023-03-15T05:15:38;93439.06;;;7.97;48.56
33191;BME280;19554;42.652;23.364;2023-03-15T05:18:03;93432.47;;;8.17;47.16
33191;BME280;19554;42.652;23.364;2023-03-15T05:20:29;93417.88;;;8.28;46.73
33191;BME280;19554;42.652;23.364;2023-03-15T05:22:55;93421.97;;;8.48;45.88
33191;BME280;19554;42.652;23.364;2023-03-15T05:25:20;93424.84;;;8.60;45.69
33191;BME280;19554;42.652;23.364;2023-03-15T05:27:45;93410.09;;;8.54;45.73
33191;BME280;19554;42.652;23.364;2023-03-15T05:30:11;93433.31;;;8.62;45.70
33191;BME280;19554;42.652;23.364;2023-03-15T05:32:38;93428.59;;;8.59;45.77
33191;BME280;19554;42.652;23.364;2023-03-15T05:35:05;93415.66;;;8.44;43.56
33191;BME280;19554;42.652;23.364;2023-03-15T05:37:32;93431.50;;;8.13;43.87
33191;BME280;19554;42.652;23.364;2023-03-15T05:39:58;93382.81;;;7.81;44.32
33191;BME280;19554;42.652;23.364;2023-03-15T05:42:24;93371.25;;;7.63;44.22
33191;BME280;19554;42.652;23.364;2023-03-15T05:44:53;93394.03;;;7.78;44.30
33191;BME280;19554;42.652;23.364;2023-03-15T05:47:20;93408.78;;;7.84;43.85
33191;BME280;19554;42.652;23.364;2023-03-15T05:49:46;93324.88;;;7.47;44.10
33191;BME280;19554;42.652;23.364;2023-03-15T05:52:11;93405.16;;;8.02;44.56
33191;BME280;19554;42.652;23.364;2023-03-15T05:54:37;93426.75;;;8.01;45.15
33191;BME280;19554;42.652;23.364;2023-03-15T05:57:03;93393.50;;;7.90;45.20
33191;BME280;19554;42.652;23.364;2023-03-15T05:59:28;93432.88;;;8.24;45.34
33191;BME280;19554;42.652;23.364;2023-03-15T06:01:53;93402.72;;;8.28;45.55
33191;BME280;19554;42.652;23.364;2023-03-15T06:04:19;93423.94;;;8.42;45.27
33191;BME280;19554;42.652;23.364;2023-03-15T06:06:44;93347.50;;;8.03;43.65
33191;BME280;19554;42.652;23.364;2023-03-15T06:09:10;93308.47;;;7.90;42.63
33191;BME280;19554;42.652;23.364;2023-03-15T06:11:35;93404.88;;;8.71;43.21
33191;BME280;19554;42.652;23.364;2023-03-15T06:14:01;93415.66;;;8.44;42.57
33191;BME280;19554;42.652;23.364;2023-03-15T06:16:26;93414.19;;;8.60;41.46
33191;BME280;19554;42.652;23.364;2023-03-15T06:18:51;93410.91;;;8.86;40.92
33191;BME280;19554;42.652;23.364;2023-03-15T06:21:17;93399.47;;;8.85;40.16
33191;BME280;19554;42.652;23.364;2023-03-15T06:23:42;93420.75;;;9.16;39.93
33191;BME280;19554;42.652;23.364;2023-03-15T06:26:08;93310.69;;;8.72;40.05
33191;BME280;19554;42.652;23.364;2023-03-15T06:28:34;93413.94;;;9.50;39.87
33191;BME280;19554;42.652;23.364;2023-03-15T06:31:10;93346.00;;;9.04;39.99
33191;BME280;19554;42.652;23.364;2023-03-15T06:33:36;93395.91;;;9.38;40.02
33191;BME280;19554;42.652;23.364;2023-03-15T06:36:02;93330.66;;;9.01;40.44
33191;BME280;19554;42.652;23.364;2023-03-15T06:38:28;93404.47;;;9.75;39.61
33191;BME280;19554;42.652;23.364;2023-03-15T06:40:55;93404.31;;;9.89;39.61
33191;BME280;19554;42.652;23.364;2023-03-15T06:43:23;93409.00;;;9.75;39.83
33191;BME280;19554;42.652;23.364;2023-03-15T06:45:48;93405.66;;;9.60;40.15
33191;BME280;19554;42.652;23.364;2023-03-15T06:48:14;93412.72;;;9.56;40.16
33191;BME280;19554;42.652;23.364;2023-03-15T06:50:39;93376.88;;;9.71;40.59
33191;BME280;19554;42.652;23.364;2023-03-15T06:53:05;93395.53;;;10.14;39.67
33191;BME280;19554;42.652;23.364;2023-03-15T06:55:31;93399.94;;;10.45;38.72
33191;BME280;19554;42.652;23.364;2023-03-15T06:57:57;93371.22;;;10.25;38.68
33191;BME280;19554;42.652;23.364;2023-03-15T07:00:22;93309.00;;;10.03;38.30
33191;BME280;19554;42.652;23.364;2023-03-15T07:02:48;93385.53;;;10.46;38.04
33191;BME280;19554;42.652;23.364;2023-03-15T07:05:13;93314.66;;;9.93;37.95
33191;BME280;19554;42.652;23.364;2023-03-15T07:07:39;93381.75;;;10.47;38.45
33191;BME280;19554;42.652;23.364;2023-03-15T07:10:05;93393.28;;;10.86;37.82
33191;BME280;19554;42.652;23.364;2023-03-15T07:12:31;93387.53;;;11.13;37.07
33191;BME280;19554;42.652;23.364;2023-03-15T07:14:56;93359.25;;;10.74;37.53
33191;BME280;19554;42.652;23.364;2023-03-15T07:17:21;93378.41;;;10.67;37.87
33191;BME280;19554;42.652;23.364;2023-03-15T07:19:47;93292.69;;;9.96;38.37
33191;BME280;19554;42.652;23.364;2023-03-15T07:22:12;93390.19;;;10.49;38.50
33191;BME280;19554;42.652;23.364;2023-03-15T07:24:38;93386.00;;;10.39;38.82
33191;BME280;19554;42.652;23.364;2023-03-15T07:27:03;93385.19;;;10.21;38.42
33191;BME280;19554;42.652;23.364;2023-03-15T07:29:29;93365.91;;;10.07;38.55
33191;BME280;19554;42.652;23.364;2023-03-15T07:31:54;93387.84;;;10.04;38.46
33191;BME280;19554;42.652;23.364;2023-03-15T07:34:20;93245.38;;;9.06;39.17
33191;BME280;19554;42.652;23.364;2023-03-15T07:36:45;93330.94;;;9.65;39.17
33191;BME280;19554;42.652;23.364;2023-03-15T07:39:11;93401.97;;;10.13;38.35
33191;BME280;19554;42.652;23.364;2023-03-15T07:41:36;93363.84;;;10.21;37.70
33191;BME280;19554;42.652;23.364;2023-03-15T07:44:02;93378.53;;;10.80;37.11
33191;BME280;19554;42.652;23.364;2023-03-15T07:46:27;93387.16;;;11.24;35.84
33191;BME280;19554;42.652;23.364;2023-03-15T07:48:53;93391.38;;;11.33;36.25
33191;BME280;19554;42.652;23.364;2023-03-15T07:51:18;93394.50;;;11.35;35.27
33191;BME280;19554;42.652;23.364;2023-03-15T07:53:43;93371.28;;;11.27;35.74
33191;BME280;19554;42.652;23.364;2023-03-15T07:56:09;93384.00;;;11.30;35.44
33191;BME280;19554;42.652;23.364;2023-03-15T07:58:35;93378.94;;;10.99;36.26
33191;BME280;19554;42.652;23.364;2023-03-15T08:01:00;93386.88;;;10.78;36.42
33191;BME280;19554;42.652;23.364;2023-03-15T08:03:25;93367.34;;;10.31;37.13
33191;BME280;19554;42.652;23.364;2023-03-15T08:05:52;93311.50;;;9.91;37.76
33191;BME280;19554;42.652;23.364;2023-03-15T08:08:17;93381.09;;;9.81;38.63
33191;BME280;19554;42.652;23.364;2023-03-15T08:10:44;93376.88;;;10.23;38.39
33191;BME280;19554;42.652;23.364;2023-03-15T08:13:10;93366.66;;;10.51;38.35
33191;BME280;19554;42.652;23.364;2023-03-15T08:15:35;93365.22;;;10.71;37.93
33191;BME280;19554;42.652;23.364;2023-03-15T08:18:01;93267.25;;;10.07;38.43
33191;BME280;19554;42.652;23.364;2023-03-15T08:20:27;93353.63;;;10.67;38.43
33191;BME280;19554;42.652;23.364;2023-03-15T08:22:52;93344.91;;;10.87;38.49
33191;BME280;19554;42.652;23.364;2023-03-15T08:25:21;93345.53;;;11.23;37.60
33191;BME280;19554;42.652;23.364;2023-03-15T08:27:47;93345.13;;;11.42;37.27
33191;BME280;19554;42.652;23.364;2023-03-15T08:30:14;93345.97;;;11.84;36.88
33191;BME280;19554;42.652;23.364;2023-03-15T08:32:41;93342.63;;;12.29;35.80
33191;BME280;19554;42.652;23.364;2023-03-15T08:35:09;93347.81;;;12.46;35.22
33191;BME280;19554;42.652;23.364;2023-03-15T08:37:36;93356.53;;;12.22;35.50
33191;BME280;19554;42.652;23.364;2023-03-15T08:40:02;93353.91;;;12.35;35.00
33191;BME280;19554;42.652;23.364;2023-03-15T08:42:36;93352.44;;;12.37;35.13
33191;BME280;19554;42.652;23.364;2023-03-15T08:45:05;93349.59;;;12.42;35.08
33191;BME280;19554;42.652;23.364;2023-03-15T08:47:34;93324.13;;;12.36;34.91
33191;BME280;19554;42.652;23.364;2023-03-15T08:50:05;93335.97;;;12.35;35.00
33191;BME280;19554;42.652;23.364;2023-03-15T08:52:31;93346.06;;;12.29;35.24
33191;BME280;19554;42.652;23.364;2023-03-15T08:54:57;93359.81;;;12.07;34.90
33191;BME280;19554;42.652;23.364;2023-03-15T08:57:23;93351.72;;;11.95;35.20
33191;BME280;19554;42.652;23.364;2023-03-15T08:59:50;93353.41;;;11.99;35.07
33191;BME280;19554;42.652;23.364;2023-03-15T09:02:16;93353.94;;;12.14;35.16
33191;BME280;19554;42.652;23.364;2023-03-15T09:04:41;93349.69;;;12.13;35.11
33191;BME280;19554;42.652;23.364;2023-03-15T09:07:06;93349.75;;;12.25;35.12
33191;BME280;19554;42.652;23.364;2023-03-15T09:09:32;93344.25;;;12.42;34.93
33191;BME280;19554;42.652;23.364;2023-03-15T09:11:58;93351.44;;;12.29;34.81
33191;BME280;19554;42.652;23.364;2023-03-15T09:14:23;93346.81;;;12.18;34.88
33191;BME280;19554;42.652;23.364;2023-03-15T09:16:48;93342.97;;;11.85;35.46
33191;BME280;19554;42.652;23.364;2023-03-15T09:19:14;93329.84;;;11.72;35.87
33191;BME280;19554;42.652;23.364;2023-03-15T09:21:39;93293.38;;;11.25;35.84
33191;BME280;19554;42.652;23.364;2023-03-15T09:24:05;93348.16;;;11.82;35.56
33191;BME280;19554;42.652;23.364;2023-03-15T09:26:30;93355.03;;;11.92;35.65
33191;BME280;19554;42.652;23.364;2023-03-15T09:28:56;93347.75;;;12.01;35.59
33191;BME280;19554;42.652;23.364;2023-03-15T09:31:21;93347.28;;;11.99;35.22
33191;BME280;19554;42.652;23.364;2023-03-15T09:33:49;93315.84;;;11.45;35.79
33191;BME280;19554;42.652;23.364;2023-03-15T09:36:14;93344.31;;;11.71;36.09
33191;BME280;19554;42.652;23.364;2023-03-15T09:38:42;93347.75;;;11.71;35.89
33191;BME280;19554;42.652;23.364;2023-03-15T09:41:18;93336.72;;;12.02;35.70
33191;BME280;19554;42.652;23.364;2023-03-15T09:43:59;93336.72;;;12.02;35.47
33191;BME280;19554;42.652;23.364;2023-03-15T09:46:52;93327.31;;;11.96;35.76
33191;BME280;19554;42.652;23.364;2023-03-15T09:49:36;93326.41;;;11.92;35.60
33191;BME280;19554;42.652;23.364;2023-03-15T09:54:44;93283.88;;;11.57;36.13
33191;BME280;19554;42.652;23.364;2023-03-15T09:57:17;93296.00;;;11.55;36.50
33191;BME280;19554;42.652;23.364;2023-03-15T09:59:49;93316.03;;;11.70;37.18
33191;BME280;19554;42.652;23.364;2023-03-15T10:05:00;93314.66;;;12.05;35.93
33191;BME280;19554;42.652;23.364;2023-03-15T10:07:29;93285.88;;;11.90;35.82
33191;BME280;19554;42.652;23.364;2023-03-15T10:09:56;93295.81;;;11.81;36.16
33191;BME280;19554;42.652;23.364;2023-03-15T10:12:33;93308.53;;;12.05;36.16
33191;BME280;19554;42.652;23.364;2023-03-15T10:15:27;93300.84;;;12.03;36.14
33191;BME280;19554;42.652;23.364;2023-03-15T10:20:33;93308.00;;;12.12;35.58
33191;BME280;19554;42.652;23.364;2023-03-15T10:23:09;93316.31;;;11.98;36.14
33191;BME280;19554;42.652;23.364;2023-03-15T10:25:36;93198.13;;;11.08;36.19
33191;BME280;19554;42.652;23.364;2023-03-15T10:28:12;93214.16;;;11.29;35.85
33191;BME280;19554;42.652;23.364;2023-03-15T10:30:45;93319.75;;;11.77;35.87
33191;BME280;19554;42.652;23.364;2023-03-15T10:33:30;93302.94;;;11.77;36.28
33191;BME280;19554;42.652;23.364;2023-03-15T10:35:59;93311.66;;;11.86;35.98
33191;BME280;19554;42.652;23.364;2023-03-15T10:38:26;93316.06;;;11.91;36.32
33191;BME280;19554;42.652;23.364;2023-03-15T10:40:53;93309.31;;;11.63;36.29
33191;BME280;19554;42.652;23.364;2023-03-15T10:48:33;93277.22;;;11.43;36.58
33191;BME280;19554;42.652;23.364;2023-03-15T10:51:06;93308.56;;;11.54;36.99
33191;BME280;19554;42.652;23.364;2023-03-15T10:53:32;93313.63;;;11.56;36.86
33191;BME280;19554;42.652;23.364;2023-03-15T10:56:01;93283.63;;;11.50;36.54
33191;BME280;19554;42.652;23.364;2023-03-15T10:58:38;93312.97;;;11.80;36.36
33191;BME280;19554;42.652;23.364;2023-03-15T11:01:06;93292.91;;;11.95;35.84
33191;BME280;19554;42.652;23.364;2023-03-15T11:03:33;93308.53;;;12.05;35.89
33191;BME280;19554;42.652;23.364;2023-03-15T11:05:59;93294.81;;;12.06;35.76
33191;BME280;19554;42.652;23.364;2023-03-15T11:08:38;93294.38;;;12.04;35.68
33191;BME280;19554;42.652;23.364;2023-03-15T11:11:05;93289.22;;;11.99;36.17
33191;BME280;19554;42.652;23.364;2023-03-15T11:13:33;93291.47;;;11.97;36.05
33191;BME280;19554;42.652;23.364;2023-03-15T11:16:34;93248.56;;;11.73;35.85
33191;BME280;19554;42.652;23.364;2023-03-15T11:19:00;93293.03;;;11.98;35.67
33191;BME280;19554;42.652;23.364;2023-03-15T11:21:33;93287.50;;;12.16;35.44
33191;BME280;19554;42.652;23.364;2023-03-15T11:24:02;93295.34;;;12.21;35.24
33191;BME280;19554;42.652;23.364;2023-03-15T11:26:33;93295.47;;;12.24;36.70
33191;BME280;19554;42.652;23.364;2023-03-15T11:29:03;93300.53;;;12.38;35.39
33191;BME280;19554;42.652;23.364;2023-03-15T11:31:30;93299.06;;;12.41;35.36
33191;BME280;19554;42.652;23.364;2023-03-15T11:33:57;93288.06;;;12.54;35.32
33191;BME280;19554;42.652;23.364;2023-03-15T11:36:29;93285.53;;;12.70;35.02
33191;BME280;19554;42.652;23.364;2023-03-15T11:38:58;93286.19;;;12.67;35.23
33191;BME280;19554;42.652;23.364;2023-03-15T11:41:39;93271.56;;;12.65;34.86
33191;BME280;19554;42.652;23.364;2023-03-15T11:44:15;93273.47;;;12.64;34.81
33191;BME280;19554;42.652;23.364;2023-03-15T11:46:53;93284.75;;;12.70;34.60
33191;BME280;19554;42.652;23.364;2023-03-15T11:49:36;93280.88;;;12.34;34.78
33191;BME280;19554;42.652;23.364;2023-03-15T11:52:05;93281.09;;;12.29;34.85
33191;BME280;19554;42.652;23.364;2023-03-15T11:54:31;93211.91;;;11.94;34.99
33191;BME280;19554;42.652;23.364;2023-03-15T11:57:05;93270.63;;;12.36;35.06
33191;BME280;19554;42.652;23.364;2023-03-15T11:59:36;93279.59;;;12.52;34.74
33191;BME280;19554;42.652;23.364;2023-03-15T12:07:55;93268.59;;;12.33;35.20
33191;BME280;19554;42.652;23.364;2023-03-15T12:09:55;93257.94;;;12.45;35.15
33191;BME280;19554;42.652;23.364;2023-03-15T12:17:45;93245.50;;;12.62;35.04
33191;BME280;19554;42.652;23.364;2023-03-15T12:20:39;93244.38;;;12.63;34.99
33191;BME280;19554;42.652;23.364;2023-03-15T12:23:20;93243.25;;;12.76;34.57
33191;BME280;19554;42.652;23.364;2023-03-15T12:25:55;93248.81;;;12.59;34.70
33191;BME280;19554;42.652;23.364;2023-03-15T12:28:35;93258.84;;;12.49;34.96
33191;BME280;19554;42.652;23.364;2023-03-15T12:31:04;93254.19;;;12.71;34.79
33191;BME280;19554;42.652;23.364;2023-03-15T12:33:33;93237.88;;;12.64;34.46
33191;BME280;19554;42.652;23.364;2023-03-15T12:36:10;93167.56;;;11.93;35.03
33191;BME280;19554;42.652;23.364;2023-03-15T12:38:39;93247.66;;;12.35;34.88
33191;BME280;19554;42.652;23.364;2023-03-15T12:41:39;93239.72;;;12.26;35.36
33191;BME280;19554;42.652;23.364;2023-03-15T12:46:59;93235.59;;;12.29;35.38
33191;BME280;19554;42.652;23.364;2023-03-15T12:54:26;93241.66;;;12.38;35.41
33191;BME280;19554;42.652;23.364;2023-03-15T12:57:02;93226.50;;;12.42;35.44
33191;BME280;19554;42.652;23.364;2023-03-15T13:02:32;93179.47;;;12.41;35.08
33191;BME280;19554;42.652;23.364;2023-03-15T13:07:33;93232.66;;;12.92;34.90
33191;BME280;19554;42.652;23.364;2023-03-15T13:10:28;93229.75;;;12.97;35.37
33191;BME280;19554;42.652;23.364;2023-03-15T13:18:35;93227.28;;;12.92;38.29
33191;BME280;19554;42.652;23.364;2023-03-15T13:21:14;93220.50;;;12.82;38.79
33191;BME280;19554;42.652;23.364;2023-03-15T13:23:45;93218.28;;;12.72;38.86
33191;BME280;19554;42.652;23.364;2023-03-15T13:26:40;93226.50;;;12.67;39.05
33191;BME280;19554;42.652;23.364;2023-03-15T13:31:36;93235.81;;;12.24;39.68
33191;BME280;19554;42.652;23.364;2023-03-15T13:34:34;93234.53;;;12.54;39.19
33191;BME280;19554;42.652;23.364;2023-03-15T13:37:00;93238.56;;;12.61;39.42
33191;BME280;19554;42.652;23.364;2023-03-15T13:39:31;93180.72;;;11.98;40.15
33191;BME280;19554;42.652;23.364;2023-03-15T13:42:00;93242.31;;;12.47;39.55
33191;BME280;19554;42.652;23.364;2023-03-15T13:44:27;93223.81;;;12.42;39.63
33191;BME280;19554;42.652;23.364;2023-03-15T13:46:54;93227.38;;;12.46;39.33
33191;BME280;19554;42.652;23.364;2023-03-15T13:49:20;93213.97;;;12.34;39.23
33191;BME280;19554;42.652;23.364;2023-03-15T13:51:47;93223.91;;;12.33;39.59
33191;BME280;19554;42.652;23.364;2023-03-15T13:54:26;93237.16;;;12.30;39.41